createdAt,value
2023-01-17T00:00:17.469Z,4.22
2023-01-17T00:01:17.465Z,4.26
2023-01-17T00:02:17.554Z,4.22
2023-01-17T00:03:17.460Z,4.16
2023-01-17T00:04:17.438Z,4.16
2023-01-17T00:05:17.434Z,4.16
2023-01-17T00:06:17.423Z,4.20
2023-01-17T00:07:17.412Z,4.26
2023-01-17T00:08:17.390Z,4.16
2023-01-17T00:09:17.376Z,4.18
2023-01-17T00:10:17.373Z,4.18
2023-01-17T00:11:17.370Z,4.18
2023-01-17T00:12:17.340Z,4.22
2023-01-17T00:13:17.335Z,4.22
2023-01-17T00:14:17.326Z,4.16
2023-01-17T00:15:17.324Z,4.27
2023-01-17T00:16:17.324Z,4.22
2023-01-17T00:17:17.284Z,4.24
2023-01-17T00:18:17.297Z,4.27
2023-01-17T00:19:17.293Z,4.26
2023-01-17T00:20:19.297Z,4.12
2023-01-17T00:21:17.255Z,4.12
2023-01-17T00:22:17.262Z,4.23
2023-01-17T00:23:17.227Z,4.30
2023-01-17T00:24:17.227Z,4.16
2023-01-17T00:25:17.226Z,4.24
2023-01-17T00:26:17.238Z,4.29
2023-01-17T00:27:17.178Z,4.29
2023-01-17T00:28:17.181Z,4.27
2023-01-17T00:29:17.174Z,4.22
2023-01-17T00:30:17.146Z,4.37
2023-01-17T00:31:17.302Z,4.32
2023-01-17T00:32:17.144Z,4.24
2023-01-17T00:33:17.113Z,4.27
2023-01-17T00:34:17.110Z,4.26
2023-01-17T00:35:17.114Z,4.26
2023-01-17T00:36:17.102Z,4.27
2023-01-17T00:37:17.072Z,4.15
2023-01-17T00:38:17.063Z,4.22
2023-01-17T00:39:17.048Z,4.29
2023-01-17T00:40:17.043Z,4.18
2023-01-17T00:41:17.047Z,4.20
2023-01-17T00:42:17.025Z,4.16
2023-01-17T00:43:17.007Z,4.22
2023-01-17T00:44:16.990Z,4.20
2023-01-17T00:45:16.990Z,4.23
2023-01-17T00:46:17.029Z,4.24
2023-01-17T00:47:16.978Z,4.18
2023-01-17T00:48:16.956Z,4.16
2023-01-17T00:49:16.972Z,4.12
2023-01-17T00:50:16.943Z,4.26
2023-01-17T00:51:16.936Z,4.27
2023-01-17T00:52:16.929Z,4.29
2023-01-17T00:53:16.911Z,4.26
2023-01-17T00:54:18.938Z,4.22
2023-01-17T00:55:16.878Z,4.32
2023-01-17T00:56:16.866Z,4.41
2023-01-17T00:57:16.893Z,4.22
2023-01-17T00:58:16.854Z,4.23
2023-01-17T00:59:16.849Z,4.32
2023-01-17T01:00:16.821Z,4.22
2023-01-17T01:01:16.981Z,4.15
2023-01-17T01:02:16.873Z,4.27
2023-01-17T01:03:16.818Z,4.22
2023-01-17T01:04:16.787Z,4.24
2023-01-17T01:05:16.788Z,4.27
2023-01-17T01:06:16.782Z,4.32
2023-01-17T01:07:16.765Z,4.27
2023-01-17T01:08:16.738Z,4.32
2023-01-17T01:09:16.750Z,4.24
2023-01-17T01:10:16.714Z,4.29
2023-01-17T01:11:16.722Z,4.32
2023-01-17T01:12:16.701Z,4.30
2023-01-17T01:13:16.678Z,4.26
2023-01-17T01:14:16.665Z,4.18
2023-01-17T01:15:16.668Z,4.24
2023-01-17T01:16:16.673Z,4.24
2023-01-17T01:17:16.652Z,4.29
2023-01-17T01:18:16.632Z,4.22
2023-01-17T01:19:17.109Z,4.24
2023-01-17T01:20:16.601Z,4.27
2023-01-17T01:21:16.608Z,4.20
2023-01-17T01:22:16.583Z,4.20
2023-01-17T01:23:16.597Z,4.24
2023-01-17T01:24:16.561Z,4.27
2023-01-17T01:25:16.592Z,4.23
2023-01-17T01:26:16.537Z,4.18
2023-01-17T01:27:16.546Z,4.15
2023-01-17T01:28:16.515Z,4.20
2023-01-17T01:29:16.507Z,4.14
2023-01-17T01:30:16.501Z,4.14
2023-01-17T01:31:16.535Z,4.09
2023-01-17T01:32:16.486Z,4.15
2023-01-17T01:33:16.499Z,4.09
2023-01-17T01:34:16.452Z,4.15
2023-01-17T01:35:16.446Z,4.16
2023-01-17T01:36:16.438Z,4.18
2023-01-17T01:37:16.421Z,4.14
2023-01-17T01:38:16.419Z,4.08
2023-01-17T01:39:16.439Z,4.05
2023-01-17T01:40:16.391Z,4.22
2023-01-17T01:41:16.377Z,4.04
2023-01-17T01:42:16.366Z,4.16
2023-01-17T01:43:16.357Z,4.08
2023-01-17T01:44:16.349Z,3.96
2023-01-17T01:45:16.346Z,3.91
2023-01-17T01:46:16.364Z,3.94
2023-01-17T01:47:16.313Z,3.83
2023-01-17T01:48:16.296Z,3.86
2023-01-17T01:49:16.293Z,3.73
2023-01-17T01:50:16.280Z,3.79
2023-01-17T01:51:16.282Z,3.84
2023-01-17T01:52:16.270Z,3.72
2023-01-17T01:53:16.244Z,3.65
2023-01-17T01:54:16.241Z,3.75
2023-01-17T01:55:16.248Z,3.73
2023-01-17T01:56:16.218Z,3.68
2023-01-17T01:57:16.229Z,3.61
2023-01-17T01:58:16.186Z,3.69
2023-01-17T01:59:16.183Z,3.61
2023-01-17T02:00:16.168Z,3.69
2023-01-17T02:01:16.292Z,3.65
2023-01-17T02:02:16.152Z,3.57
2023-01-17T02:03:16.159Z,3.62
2023-01-17T02:04:16.121Z,3.60
2023-01-17T02:05:16.119Z,3.65
2023-01-17T02:06:16.103Z,3.65
2023-01-17T02:07:16.111Z,3.66
2023-01-17T02:08:16.082Z,3.65
2023-01-17T02:09:16.088Z,3.69
2023-01-17T02:10:16.073Z,3.65
2023-01-17T02:11:16.070Z,3.70
2023-01-17T02:12:16.055Z,3.69
2023-01-17T02:13:16.028Z,3.75
2023-01-17T02:14:16.018Z,3.78
2023-01-17T02:15:16.021Z,3.72
2023-01-17T02:16:16.040Z,3.80
2023-01-17T02:17:16.014Z,3.70
2023-01-17T02:18:15.987Z,3.78
2023-01-17T02:19:15.971Z,3.80
2023-01-17T02:20:15.961Z,3.83
2023-01-17T02:21:15.975Z,3.79
2023-01-17T02:22:15.929Z,3.96
2023-01-17T02:23:15.925Z,3.88
2023-01-17T02:24:15.916Z,3.93
2023-01-17T02:25:15.921Z,3.80
2023-01-17T02:26:15.910Z,3.91
2023-01-17T02:27:15.918Z,3.94
2023-01-17T02:28:15.863Z,4.04
2023-01-17T02:29:15.872Z,3.97
2023-01-17T02:30:15.847Z,3.93
2023-01-17T02:31:15.894Z,3.94
2023-01-17T02:32:15.831Z,3.98
2023-01-17T02:33:15.834Z,3.96
2023-01-17T02:34:15.801Z,3.90
2023-01-17T02:35:15.804Z,3.94
2023-01-17T02:36:15.789Z,3.94
2023-01-17T02:37:15.785Z,3.91
2023-01-17T02:38:15.760Z,3.93
2023-01-17T02:39:15.752Z,3.88
2023-01-17T02:40:15.741Z,3.87
2023-01-17T02:41:15.740Z,3.88
2023-01-17T02:42:15.721Z,3.96
2023-01-17T02:43:15.723Z,3.96
2023-01-17T02:44:15.694Z,3.83
2023-01-17T02:45:15.692Z,3.87
2023-01-17T02:46:15.710Z,3.78
2023-01-17T02:47:15.664Z,3.72
2023-01-17T02:48:15.657Z,3.83
2023-01-17T02:49:15.659Z,3.70
2023-01-17T02:50:15.634Z,3.80
2023-01-17T02:51:15.647Z,3.78
2023-01-17T02:52:15.609Z,3.83
2023-01-17T02:53:15.600Z,3.79
2023-01-17T02:54:15.603Z,3.78
2023-01-17T02:55:15.578Z,3.72
2023-01-17T02:56:15.570Z,3.69
2023-01-17T02:57:15.557Z,3.65
2023-01-17T02:58:15.549Z,3.69
2023-01-17T02:59:15.562Z,3.66
2023-01-17T03:00:15.521Z,3.58
2023-01-17T03:01:15.621Z,3.51
2023-01-17T03:02:15.635Z,3.51
2023-01-17T03:03:15.503Z,3.36
2023-01-17T03:04:15.490Z,3.35
2023-01-17T03:05:15.479Z,3.40
2023-01-17T03:06:15.464Z,3.45
2023-01-17T03:07:15.443Z,3.45
2023-01-17T03:08:15.437Z,3.35
2023-01-17T03:09:15.429Z,3.35
2023-01-17T03:10:15.425Z,3.47
2023-01-17T03:11:15.397Z,3.40
2023-01-17T03:12:15.389Z,3.47
2023-01-17T03:13:15.390Z,3.52
2023-01-17T03:14:15.370Z,3.52
2023-01-17T03:15:15.384Z,3.54
2023-01-17T03:16:15.365Z,3.54
2023-01-17T03:17:15.369Z,3.54
2023-01-17T03:18:15.349Z,3.57
2023-01-17T03:19:15.313Z,3.48
2023-01-17T03:20:15.308Z,3.58
2023-01-17T03:21:15.310Z,3.61
2023-01-17T03:22:15.284Z,3.57
2023-01-17T03:23:15.271Z,3.54
2023-01-17T03:24:15.268Z,3.61
2023-01-17T03:25:15.279Z,3.54
2023-01-17T03:26:15.242Z,3.60
2023-01-17T03:27:15.245Z,3.54
2023-01-17T03:28:15.230Z,3.57
2023-01-17T03:29:15.219Z,3.58
2023-01-17T03:30:15.197Z,3.50
2023-01-17T03:31:15.206Z,3.58
2023-01-17T03:32:15.178Z,3.48
2023-01-17T03:33:15.184Z,3.51
2023-01-17T03:34:15.174Z,3.50
2023-01-17T03:35:15.147Z,3.58
2023-01-17T03:36:15.141Z,3.58
2023-01-17T03:37:15.123Z,3.50
2023-01-17T03:38:15.113Z,3.57
2023-01-17T03:39:15.131Z,3.52
2023-01-17T03:40:15.121Z,3.48
2023-01-17T03:41:15.084Z,3.52
2023-01-17T03:42:15.073Z,3.62
2023-01-17T03:43:15.054Z,3.57
2023-01-17T03:44:15.054Z,3.51
2023-01-17T03:45:15.070Z,3.62
2023-01-17T03:46:15.027Z,3.52
2023-01-17T03:47:15.029Z,3.60
2023-01-17T03:48:15.012Z,3.60
2023-01-17T03:49:15.012Z,3.54
2023-01-17T03:50:14.982Z,3.60
2023-01-17T03:51:15.015Z,3.73
2023-01-17T03:52:14.964Z,3.61
2023-01-17T03:53:14.950Z,3.48
2023-01-17T03:54:14.943Z,3.48
2023-01-17T03:55:14.931Z,3.47
2023-01-17T03:56:14.920Z,3.45
2023-01-17T03:57:14.939Z,3.58
2023-01-17T03:58:14.895Z,3.54
2023-01-17T03:59:14.904Z,3.55
2023-01-17T04:00:14.893Z,3.50
2023-01-17T04:01:14.973Z,3.50
2023-01-17T04:02:14.973Z,3.50
2023-01-17T04:03:14.866Z,3.54
2023-01-17T04:04:14.839Z,3.54
2023-01-17T04:05:14.822Z,3.54
2023-01-17T04:06:14.835Z,3.55
2023-01-17T04:07:14.804Z,3.52
2023-01-17T04:08:14.797Z,3.50
2023-01-17T04:09:14.802Z,3.58
2023-01-17T04:10:14.786Z,3.58
2023-01-17T04:11:14.772Z,3.54
2023-01-17T04:12:14.745Z,3.61
2023-01-17T04:13:14.732Z,3.61
2023-01-17T04:14:14.739Z,3.57
2023-01-17T04:15:14.742Z,3.57
2023-01-17T04:16:14.739Z,3.58
2023-01-17T04:17:14.689Z,3.69
2023-01-17T04:18:14.684Z,3.54
2023-01-17T04:19:14.686Z,3.61
2023-01-17T04:20:14.680Z,3.57
2023-01-17T04:21:14.663Z,3.60
2023-01-17T04:22:14.636Z,3.60
2023-01-17T04:23:14.631Z,3.47
2023-01-17T04:24:16.403Z,3.57
2023-01-17T04:25:14.602Z,3.45
2023-01-17T04:26:14.627Z,3.47
2023-01-17T04:27:14.595Z,3.43
2023-01-17T04:28:14.592Z,3.39
2023-01-17T04:29:14.557Z,3.40
2023-01-17T04:30:14.555Z,3.40
2023-01-17T04:31:14.663Z,3.42
2023-01-17T04:32:14.542Z,3.36
2023-01-17T04:33:14.545Z,3.24
2023-01-17T04:34:14.509Z,3.33
2023-01-17T04:35:14.517Z,3.26
2023-01-17T04:36:14.505Z,3.20
2023-01-17T04:37:14.494Z,3.23
2023-01-17T04:38:14.474Z,3.17
2023-01-17T04:39:14.453Z,3.24
2023-01-17T04:40:14.449Z,3.29
2023-01-17T04:41:14.431Z,3.23
2023-01-17T04:42:14.423Z,3.33
2023-01-17T04:43:14.427Z,3.20
2023-01-17T04:44:14.423Z,3.26
2023-01-17T04:45:14.387Z,3.23
2023-01-17T04:46:14.474Z,3.17
2023-01-17T04:47:14.369Z,3.23
2023-01-17T04:48:14.376Z,3.06
2023-01-17T04:49:14.344Z,3.05
2023-01-17T04:50:14.357Z,3.08
2023-01-17T04:51:14.344Z,3.10
2023-01-17T04:52:14.355Z,3.03
2023-01-17T04:53:14.317Z,3.05
2023-01-17T04:54:14.301Z,2.97
2023-01-17T04:55:14.279Z,3.02
2023-01-17T04:56:14.280Z,3.02
2023-01-17T04:57:14.256Z,2.99
2023-01-17T04:58:14.249Z,3.00
2023-01-17T04:59:14.252Z,3.08
2023-01-17T05:00:14.247Z,2.99
2023-01-17T05:01:14.436Z,3.00
2023-01-17T05:02:14.214Z,2.99
2023-01-17T05:03:14.273Z,3.06
2023-01-17T05:04:14.214Z,2.97
2023-01-17T05:05:14.171Z,2.95
2023-01-17T05:06:14.168Z,2.99
2023-01-17T05:07:14.198Z,2.99
2023-01-17T05:08:14.171Z,3.08
2023-01-17T05:09:14.152Z,3.03
2023-01-17T05:10:14.121Z,2.99
2023-01-17T05:11:14.111Z,3.00
2023-01-17T05:12:14.096Z,3.02
2023-01-17T05:13:14.098Z,2.96
2023-01-17T05:14:14.089Z,2.96
2023-01-17T05:15:14.067Z,3.03
2023-01-17T05:16:14.057Z,3.00
2023-01-17T05:17:14.048Z,3.00
2023-01-17T05:18:14.035Z,2.95
2023-01-17T05:19:14.043Z,2.92
2023-01-17T05:20:14.022Z,2.93
2023-01-17T05:21:14.018Z,2.99
2023-01-17T05:22:13.999Z,2.97
2023-01-17T05:23:14.001Z,3.02
2023-01-17T05:24:13.972Z,2.97
2023-01-17T05:25:13.960Z,2.96
2023-01-17T05:26:13.998Z,2.82
2023-01-17T05:27:13.947Z,2.84
2023-01-17T05:28:13.933Z,2.85
2023-01-17T05:29:13.912Z,2.92
2023-01-17T05:30:13.905Z,2.92
2023-01-17T05:31:13.977Z,2.97
2023-01-17T05:32:13.910Z,2.97
2023-01-17T05:33:13.873Z,2.90
2023-01-17T05:34:13.863Z,2.87
2023-01-17T05:35:13.848Z,2.96
2023-01-17T05:36:13.841Z,2.93
2023-01-17T05:37:13.832Z,2.90
2023-01-17T05:38:13.851Z,2.90
2023-01-17T05:39:13.828Z,2.89
2023-01-17T05:40:13.808Z,2.92
2023-01-17T05:41:13.811Z,2.92
2023-01-17T05:42:13.778Z,2.89
2023-01-17T05:43:13.764Z,2.85
2023-01-17T05:44:13.763Z,2.85
2023-01-17T05:45:13.741Z,2.85
2023-01-17T05:46:13.825Z,2.84
2023-01-17T05:47:13.729Z,2.81
2023-01-17T05:48:13.709Z,2.87
2023-01-17T05:49:13.698Z,2.78
2023-01-17T05:50:13.718Z,2.66
2023-01-17T05:51:13.690Z,2.72
2023-01-17T05:52:13.668Z,2.78
2023-01-17T05:53:13.677Z,2.72
2023-01-17T05:54:13.650Z,2.67
2023-01-17T05:55:13.656Z,2.71
2023-01-17T05:56:13.629Z,2.74
2023-01-17T05:57:13.621Z,2.71
2023-01-17T05:58:13.620Z,2.71
2023-01-17T05:59:14.319Z,2.78
2023-01-17T06:00:13.582Z,2.72
2023-01-17T06:01:13.626Z,2.77
2023-01-17T06:02:13.575Z,2.69
2023-01-17T06:03:13.558Z,2.57
2023-01-17T06:04:13.583Z,2.60
2023-01-17T06:05:13.525Z,2.60
2023-01-17T06:06:13.527Z,2.56
2023-01-17T06:07:13.516Z,2.60
2023-01-17T06:08:13.503Z,2.49
2023-01-17T06:09:13.497Z,2.54
2023-01-17T06:10:13.493Z,2.49
2023-01-17T06:11:13.483Z,2.46
2023-01-17T06:12:13.453Z,2.43
2023-01-17T06:13:13.456Z,2.38
2023-01-17T06:14:13.433Z,2.35
2023-01-17T06:15:13.427Z,2.36
2023-01-17T06:16:13.597Z,2.38
2023-01-17T06:17:13.399Z,2.41
2023-01-17T06:18:13.399Z,2.43
2023-01-17T06:19:13.394Z,2.45
2023-01-17T06:20:13.369Z,2.34
2023-01-17T06:21:13.360Z,2.41
2023-01-17T06:22:13.356Z,2.28
2023-01-17T06:23:13.345Z,2.24
2023-01-17T06:24:13.349Z,2.24
2023-01-17T06:25:13.311Z,2.34
2023-01-17T06:26:13.304Z,2.27
2023-01-17T06:27:13.303Z,2.27
2023-01-17T06:28:13.286Z,2.24
2023-01-17T06:29:13.262Z,2.28
2023-01-17T06:30:13.267Z,2.24
2023-01-17T06:31:13.264Z,2.23
2023-01-17T06:32:13.248Z,2.27
2023-01-17T06:33:13.225Z,2.24
2023-01-17T06:34:13.227Z,2.28
2023-01-17T06:35:13.205Z,2.27
2023-01-17T06:36:13.207Z,2.28
2023-01-17T06:37:13.195Z,2.25
2023-01-17T06:38:13.167Z,2.30
2023-01-17T06:39:15.065Z,2.20
2023-01-17T06:40:13.146Z,2.39
2023-01-17T06:41:13.147Z,2.36
2023-01-17T06:42:13.156Z,2.36
2023-01-17T06:43:13.140Z,2.39
2023-01-17T06:44:13.101Z,2.39
2023-01-17T06:45:13.092Z,2.43
2023-01-17T06:46:13.149Z,2.38
2023-01-17T06:47:13.092Z,2.39
2023-01-17T06:48:13.065Z,2.36
2023-01-17T06:49:13.054Z,2.38
2023-01-17T06:50:13.032Z,2.36
2023-01-17T06:51:13.071Z,2.34
2023-01-17T06:52:13.012Z,2.41
2023-01-17T06:53:13.018Z,2.41
2023-01-17T06:54:13.051Z,2.41
2023-01-17T06:55:12.985Z,2.42
2023-01-17T06:56:12.973Z,2.38
2023-01-17T06:57:12.978Z,2.42
2023-01-17T06:58:12.954Z,2.39
2023-01-17T06:59:12.977Z,2.46
2023-01-17T07:00:12.921Z,2.48
2023-01-17T07:01:13.116Z,2.34
2023-01-17T07:02:12.907Z,2.41
2023-01-17T07:03:12.908Z,2.39
2023-01-17T07:04:12.887Z,2.45
2023-01-17T07:05:12.912Z,2.42
2023-01-17T07:06:12.874Z,2.46
2023-01-17T07:07:12.893Z,2.48
2023-01-17T07:08:12.863Z,2.34
2023-01-17T07:09:12.850Z,2.45
2023-01-17T07:10:12.841Z,2.43
2023-01-17T07:11:12.836Z,2.43
2023-01-17T07:12:12.818Z,2.52
2023-01-17T07:13:12.792Z,2.43
2023-01-17T07:14:12.784Z,2.43
2023-01-17T07:15:12.786Z,2.46
2023-01-17T07:16:12.846Z,2.42
2023-01-17T07:17:12.785Z,2.49
2023-01-17T07:18:12.755Z,2.43
2023-01-17T07:19:12.731Z,2.48
2023-01-17T07:20:12.718Z,2.45
2023-01-17T07:21:12.730Z,2.45
2023-01-17T07:22:12.707Z,2.45
2023-01-17T07:23:12.698Z,2.49
2023-01-17T07:24:12.682Z,2.36
2023-01-17T07:25:12.670Z,2.31
2023-01-17T07:26:12.655Z,2.31
2023-01-17T07:27:12.655Z,2.36
2023-01-17T07:28:12.644Z,2.38
2023-01-17T07:29:12.618Z,2.36
2023-01-17T07:30:12.619Z,2.31
2023-01-17T07:31:12.685Z,2.42
2023-01-17T07:32:12.583Z,2.43
2023-01-17T07:33:12.584Z,2.35
2023-01-17T07:34:12.579Z,2.52
2023-01-17T07:35:12.577Z,2.43
2023-01-17T07:36:12.541Z,2.45
2023-01-17T07:37:15.020Z,2.39
2023-01-17T07:38:12.529Z,2.23
2023-01-17T07:39:12.521Z,2.35
2023-01-17T07:40:12.526Z,2.25
2023-01-17T07:41:13.243Z,2.18
2023-01-17T07:42:12.485Z,2.24
2023-01-17T07:43:12.469Z,2.17
2023-01-17T07:44:12.452Z,2.18
2023-01-17T07:45:12.469Z,2.17
2023-01-17T07:46:12.444Z,2.16
2023-01-17T07:47:12.501Z,2.21
2023-01-17T07:48:12.423Z,2.28
2023-01-17T07:49:12.396Z,2.38
2023-01-17T07:50:12.399Z,2.41
2023-01-17T07:51:12.384Z,2.42
2023-01-17T07:52:12.369Z,2.28
2023-01-17T07:53:12.371Z,2.35
2023-01-17T07:54:12.346Z,2.34
2023-01-17T07:55:12.337Z,2.45
2023-01-17T07:56:12.327Z,2.46
2023-01-17T07:57:12.315Z,2.45
2023-01-17T07:58:12.326Z,2.49
2023-01-17T07:59:12.300Z,2.46
2023-01-17T08:00:12.275Z,2.45
2023-01-17T08:01:12.407Z,2.41
2023-01-17T08:02:12.260Z,2.43
2023-01-17T08:03:12.269Z,2.45
2023-01-17T08:04:12.327Z,2.54
2023-01-17T08:05:12.236Z,2.54
2023-01-17T08:06:12.223Z,2.56
2023-01-17T08:07:12.204Z,2.59
2023-01-17T08:08:12.185Z,2.57
2023-01-17T08:09:12.182Z,2.63
2023-01-17T08:10:12.172Z,2.61
2023-01-17T08:11:12.171Z,2.63
2023-01-17T08:12:12.171Z,2.59
2023-01-17T08:13:12.154Z,2.54
2023-01-17T08:14:12.132Z,2.56
2023-01-17T08:15:12.125Z,2.59
2023-01-17T08:16:12.140Z,2.52
2023-01-17T08:17:12.124Z,2.48
2023-01-17T08:18:12.077Z,2.42
2023-01-17T08:19:12.116Z,2.48
2023-01-17T08:20:12.080Z,2.45
2023-01-17T08:21:12.068Z,2.48
2023-01-17T08:22:12.049Z,2.48
2023-01-17T08:23:12.037Z,2.46
2023-01-17T08:24:12.061Z,2.45
2023-01-17T08:25:12.004Z,2.45
2023-01-17T08:26:11.991Z,2.43
2023-01-17T08:27:11.990Z,2.45
2023-01-17T08:28:11.989Z,2.48
2023-01-17T08:29:11.971Z,2.45
2023-01-17T08:30:11.975Z,2.43
2023-01-17T08:31:12.034Z,2.36
2023-01-17T08:32:11.953Z,2.39
2023-01-17T08:33:11.939Z,2.43
2023-01-17T08:34:11.951Z,2.49
2023-01-17T08:35:11.923Z,2.45
2023-01-17T08:36:11.894Z,2.45
2023-01-17T08:37:11.887Z,2.42
2023-01-17T08:38:11.893Z,2.59
2023-01-17T08:39:11.867Z,2.64
2023-01-17T08:40:11.850Z,2.74
2023-01-17T08:41:11.834Z,2.82
2023-01-17T08:42:11.830Z,2.84
2023-01-17T08:43:11.830Z,3.00
2023-01-17T08:44:11.820Z,3.11
2023-01-17T08:45:11.814Z,3.18
2023-01-17T08:46:11.802Z,3.31
2023-01-17T08:47:11.767Z,3.39
2023-01-17T08:48:11.755Z,3.57
2023-01-17T08:49:11.760Z,3.68
2023-01-17T08:50:11.730Z,3.87
2023-01-17T08:51:11.767Z,3.91
2023-01-17T08:52:11.716Z,3.93
2023-01-17T08:53:11.706Z,3.94
2023-01-17T08:54:11.692Z,4.09
2023-01-17T08:55:11.693Z,4.18
2023-01-17T08:56:11.671Z,4.41
2023-01-17T08:57:11.709Z,4.45
2023-01-17T08:58:11.662Z,4.58
2023-01-17T08:59:11.645Z,4.67
2023-01-17T09:00:11.625Z,4.78
2023-01-17T09:01:11.749Z,4.70
2023-01-17T09:02:11.611Z,4.89
2023-01-17T09:03:11.615Z,4.92
2023-01-17T09:04:11.610Z,4.99
2023-01-17T09:05:11.624Z,4.92
2023-01-17T09:06:11.557Z,4.70
2023-01-17T09:07:11.582Z,4.54
2023-01-17T09:08:11.536Z,4.42
2023-01-17T09:09:11.540Z,4.55
2023-01-17T09:10:11.551Z,4.65
2023-01-17T09:11:11.525Z,4.60
2023-01-17T09:12:11.532Z,4.77
2023-01-17T09:13:11.505Z,4.75
2023-01-17T09:14:11.487Z,4.65
2023-01-17T09:15:11.463Z,4.70
2023-01-17T09:16:11.537Z,4.82
2023-01-17T09:17:13.127Z,4.96
2023-01-17T09:18:11.440Z,5.13
2023-01-17T09:19:11.420Z,5.35
2023-01-17T09:20:11.407Z,5.49
2023-01-17T09:21:11.419Z,5.51
2023-01-17T09:22:11.393Z,5.57
2023-01-17T09:23:11.400Z,5.54
2023-01-17T09:24:11.378Z,5.39
2023-01-17T09:25:11.354Z,5.43
2023-01-17T09:26:11.343Z,5.42
2023-01-17T09:27:11.349Z,5.27
2023-01-17T09:28:11.325Z,5.51
2023-01-17T09:29:11.309Z,5.57
2023-01-17T09:30:11.304Z,5.58
2023-01-17T09:31:11.324Z,5.58
2023-01-17T09:32:11.276Z,5.64
2023-01-17T09:33:11.283Z,5.61
2023-01-17T09:34:11.254Z,5.57
2023-01-17T09:35:11.247Z,5.43
2023-01-17T09:36:11.252Z,5.54
2023-01-17T09:37:11.239Z,5.64
2023-01-17T09:38:11.220Z,5.81
2023-01-17T09:39:11.223Z,6.06
2023-01-17T09:40:11.204Z,6.14
2023-01-17T09:41:11.179Z,5.96
2023-01-17T09:42:11.189Z,5.99
2023-01-17T09:43:11.161Z,6.06
2023-01-17T09:44:11.155Z,6.27
2023-01-17T09:45:11.140Z,6.22
2023-01-17T09:46:11.155Z,6.22
2023-01-17T09:47:11.168Z,6.06
2023-01-17T09:48:11.113Z,6.15
2023-01-17T09:49:11.109Z,6.28
2023-01-17T09:50:11.079Z,6.30
2023-01-17T09:51:11.072Z,6.09
2023-01-17T09:52:11.052Z,6.01
2023-01-17T09:53:11.079Z,6.06
2023-01-17T09:54:11.036Z,6.33
2023-01-17T09:55:11.066Z,6.59
2023-01-17T09:56:11.017Z,6.88
2023-01-17T09:57:11.012Z,6.92
2023-01-17T09:58:11.009Z,6.94
2023-01-17T09:59:10.984Z,7.05
2023-01-17T10:00:10.972Z,7.15
2023-01-17T10:01:11.091Z,7.25
2023-01-17T10:02:11.327Z,7.25
2023-01-17T10:03:11.076Z,7.39
2023-01-17T10:04:10.955Z,7.46
2023-01-17T10:05:11.034Z,7.46
2023-01-17T10:06:10.913Z,7.60
2023-01-17T10:07:10.918Z,7.60
2023-01-17T10:08:10.915Z,7.45
2023-01-17T10:09:10.878Z,7.27
2023-01-17T10:10:10.867Z,6.84
2023-01-17T10:11:10.876Z,6.80
2023-01-17T10:12:10.844Z,6.77
2023-01-17T10:13:10.841Z,6.55
2023-01-17T10:14:10.839Z,6.40
2023-01-17T10:15:10.811Z,6.52
2023-01-17T10:16:10.804Z,6.74
2023-01-17T10:17:10.811Z,6.73
2023-01-17T10:18:19.063Z,6.85
2023-01-17T10:19:11.770Z,6.74
2023-01-17T10:20:10.777Z,6.67
2023-01-17T10:21:10.745Z,6.56
2023-01-17T10:22:10.736Z,6.54
2023-01-17T10:23:10.729Z,6.48
2023-01-17T10:24:10.715Z,6.58
2023-01-17T10:25:10.719Z,6.70
2023-01-17T10:26:10.709Z,6.62
2023-01-17T10:27:10.702Z,6.80
2023-01-17T10:28:10.669Z,6.88
2023-01-17T10:29:10.686Z,7.07
2023-01-17T10:30:10.671Z,7.13
2023-01-17T10:31:10.729Z,7.24
2023-01-17T10:32:10.630Z,7.23
2023-01-17T10:33:10.623Z,7.35
2023-01-17T10:34:10.622Z,7.52
2023-01-17T10:35:10.601Z,7.68
2023-01-17T10:36:10.575Z,7.67
2023-01-17T10:37:10.572Z,7.68
2023-01-17T10:38:10.561Z,7.63
2023-01-17T10:39:10.583Z,7.63
2023-01-17T10:40:10.559Z,7.60
2023-01-17T10:41:10.539Z,7.50
2023-01-17T10:42:10.534Z,7.48
2023-01-17T10:43:10.554Z,7.28
2023-01-17T10:44:10.512Z,7.09
2023-01-17T10:45:10.517Z,6.92
2023-01-17T10:46:10.531Z,6.67
2023-01-17T10:47:10.492Z,6.22
2023-01-17T10:48:10.467Z,5.86
2023-01-17T10:49:10.442Z,5.63
2023-01-17T10:50:10.431Z,5.53
2023-01-17T10:51:10.428Z,5.35
2023-01-17T10:52:10.414Z,5.28
2023-01-17T10:53:10.425Z,5.38
2023-01-17T10:54:10.387Z,5.45
2023-01-17T10:55:10.396Z,5.49
2023-01-17T10:56:10.366Z,5.75
2023-01-17T10:57:10.381Z,5.85
2023-01-17T10:58:10.352Z,5.93
2023-01-17T10:59:10.358Z,6.04
2023-01-17T11:00:11.146Z,6.18
2023-01-17T11:01:10.414Z,6.25
2023-01-17T11:02:10.404Z,6.36
2023-01-17T11:03:10.300Z,6.51
2023-01-17T11:04:10.280Z,6.59
2023-01-17T11:05:10.287Z,6.64
2023-01-17T11:06:10.264Z,6.76
2023-01-17T11:07:10.246Z,6.74
2023-01-17T11:08:10.241Z,6.77
2023-01-17T11:09:10.257Z,6.88
2023-01-17T11:10:10.209Z,6.88
2023-01-17T11:11:10.200Z,6.77
2023-01-17T11:12:10.189Z,6.85
2023-01-17T11:13:10.195Z,6.92
2023-01-17T11:14:13.215Z,6.98
2023-01-17T11:15:10.186Z,6.97
2023-01-17T11:16:10.235Z,6.95
2023-01-17T11:17:10.134Z,6.94
2023-01-17T11:18:10.130Z,6.84
2023-01-17T11:19:11.616Z,6.70
2023-01-17T11:20:10.631Z,6.66
2023-01-17T11:21:10.675Z,6.73
2023-01-17T11:22:10.211Z,6.70
2023-01-17T11:23:10.067Z,6.67
2023-01-17T11:24:10.630Z,6.66
2023-01-17T11:25:10.658Z,6.69
2023-01-17T11:26:10.095Z,6.81
2023-01-17T11:27:10.027Z,6.85
2023-01-17T11:28:10.029Z,6.70
2023-01-17T11:29:10.016Z,6.67
2023-01-17T11:30:10.034Z,6.62
2023-01-17T11:31:10.052Z,6.70
2023-01-17T11:32:10.016Z,6.70
2023-01-17T11:33:10.001Z,6.81
2023-01-17T11:34:09.990Z,6.85
2023-01-17T11:35:09.946Z,6.87
2023-01-17T11:36:10.617Z,6.84
2023-01-17T11:37:09.945Z,6.88
2023-01-17T11:38:09.913Z,6.73
2023-01-17T11:39:09.899Z,6.66
2023-01-17T11:40:09.899Z,6.67
2023-01-17T11:41:10.613Z,6.74
2023-01-17T11:42:09.868Z,6.54
2023-01-17T11:43:09.880Z,6.43
2023-01-17T11:44:10.658Z,6.41
2023-01-17T11:45:10.619Z,6.38
2023-01-17T11:46:09.927Z,6.44
2023-01-17T11:47:09.827Z,6.37
2023-01-17T11:48:11.610Z,6.34
2023-01-17T11:49:10.616Z,6.25
2023-01-17T11:50:11.619Z,6.21
2023-01-17T11:51:09.827Z,6.19
2023-01-17T11:52:11.197Z,6.18
2023-01-17T11:53:10.615Z,6.00
2023-01-17T11:54:09.773Z,5.97
2023-01-17T11:55:12.654Z,5.78
2023-01-17T11:56:09.728Z,5.83
2023-01-17T11:57:09.752Z,5.82
2023-01-17T11:58:09.694Z,5.85
2023-01-17T11:59:09.681Z,5.81
2023-01-17T12:00:09.719Z,5.64
2023-01-17T12:01:09.803Z,5.57
2023-01-17T12:02:09.690Z,5.58
2023-01-17T12:03:09.642Z,5.56
2023-01-17T12:04:09.755Z,5.57
2023-01-17T12:05:09.657Z,5.53
2023-01-17T12:06:09.609Z,5.58
2023-01-17T12:07:09.660Z,5.61
2023-01-17T12:08:09.612Z,5.61
2023-01-17T12:09:09.572Z,5.64
2023-01-17T12:10:09.559Z,5.58
2023-01-17T12:11:09.629Z,5.61
2023-01-17T12:12:09.539Z,5.67
2023-01-17T12:13:09.526Z,5.75
2023-01-17T12:14:09.534Z,5.68
2023-01-17T12:15:09.534Z,5.86
2023-01-17T12:16:09.545Z,5.86
2023-01-17T12:17:09.518Z,5.81
2023-01-17T12:18:09.495Z,5.78
2023-01-17T12:19:09.460Z,5.63
2023-01-17T12:20:09.476Z,5.64
2023-01-17T12:21:09.439Z,5.61
2023-01-17T12:22:09.461Z,5.40
2023-01-17T12:23:09.427Z,5.45
2023-01-17T12:24:09.423Z,5.46
2023-01-17T12:25:09.407Z,5.46
2023-01-17T12:26:09.399Z,5.54
2023-01-17T12:27:09.402Z,5.51
2023-01-17T12:28:10.183Z,5.54
2023-01-17T12:29:09.355Z,5.57
2023-01-17T12:30:09.348Z,5.61
2023-01-17T12:31:10.115Z,5.60
2023-01-17T12:32:09.328Z,5.61
2023-01-17T12:33:09.312Z,5.51
2023-01-17T12:34:09.399Z,5.48
2023-01-17T12:35:09.304Z,5.48
2023-01-17T12:36:09.309Z,5.43
2023-01-17T12:37:09.306Z,5.48
2023-01-17T12:38:09.263Z,5.48
2023-01-17T12:39:09.285Z,5.57
2023-01-17T12:40:09.240Z,5.51
2023-01-17T12:41:09.224Z,5.45
2023-01-17T12:42:10.101Z,5.48
2023-01-17T12:43:09.200Z,5.45
2023-01-17T12:44:10.107Z,5.51
2023-01-17T12:45:09.225Z,5.54
2023-01-17T12:46:09.196Z,5.49
2023-01-17T12:47:09.177Z,5.53
2023-01-17T12:48:09.158Z,5.57
2023-01-17T12:49:09.152Z,5.60
2023-01-17T12:50:09.172Z,5.51
2023-01-17T12:51:09.119Z,5.60
2023-01-17T12:52:09.121Z,5.57
2023-01-17T12:53:09.107Z,5.53
2023-01-17T12:54:09.117Z,5.48
2023-01-17T12:55:09.069Z,5.40
2023-01-17T12:56:09.107Z,5.42
2023-01-17T12:57:09.072Z,5.40
2023-01-17T12:58:09.051Z,5.46
2023-01-17T12:59:09.041Z,5.42
2023-01-17T13:00:09.051Z,5.45
2023-01-17T13:01:09.142Z,5.39
2023-01-17T13:02:09.078Z,5.42
2023-01-17T13:03:08.989Z,5.42
2023-01-17T13:04:08.991Z,5.49
2023-01-17T13:05:09.025Z,5.57
2023-01-17T13:06:09.016Z,5.56
2023-01-17T13:07:08.960Z,5.56
2023-01-17T13:08:08.967Z,5.64
2023-01-17T13:09:09.649Z,5.61
2023-01-17T13:10:08.933Z,5.53
2023-01-17T13:11:08.908Z,5.60
2023-01-17T13:12:08.926Z,5.61
2023-01-17T13:13:08.884Z,5.58
2023-01-17T13:14:08.898Z,5.56
2023-01-17T13:15:08.854Z,5.61
2023-01-17T13:16:09.677Z,5.61
2023-01-17T13:17:08.883Z,5.64
2023-01-17T13:18:08.835Z,5.74